LFQQ/LIL METAR and TAF weather

Enter ICAO airport designator
Station Type Date Time Source
LFQQ METAR 2020/02/28 07:30 UTC NOAA

LFQQ 280730Z AUTO 18006KT CAVOK 01/M01 Q1016 NOSIG


Station Type Date Time Source
LFQQ Decoded METAR 2020/02/28 07:30 UTC NOAA

Lille, France (LFQQ) 50-34N 003-06E 52M
Feb 28, 2020 - 02:30 AM EST / 2020.02.28 0730 UTC
Wind: from the S (180 degrees) at 7 MPH (6 KT):0
Visibility: greater than 7 mile(s):0
Temperature: 33 F (1 C)
Windchill: 26 F (-3 C):1
Dew Point: 30 F (-1 C)
Relative Humidity: 86%
Pressure (altimeter): 30.00 in. Hg (1016 hPa)
ob: LFQQ 280730Z AUTO 18006KT CAVOK 01/M01 Q1016 NOSIG
cycle: 7

Station Type Date Time Source
LFQQ TAF 2020/02/28 06:42 UTC NOAA

TAF LFQQ 280500Z 2806/2912 14005KT CAVOK
BECMG 2808/2811 19015KT
BECMG 2811/2814 18020G30KT 4000 RA OVC013
BECMG 2816/2819 19015KT 2000 DZ OVC004
FM282300 21015KT 9999 BKN025
TEMPO 2906/2910 19020G30KT
TEMPO 2910/2912 27020G45KT 3000 RA BKN012 OVC020

Example: see airport list